createdAt,value
2022-07-28T00:00:33.037Z,1014.94
2022-07-28T00:01:33.101Z,1014.93
2022-07-28T00:02:33.014Z,1014.94
2022-07-28T00:03:32.982Z,1014.97
2022-07-28T00:04:32.952Z,1014.96
2022-07-28T00:05:32.934Z,1014.98
2022-07-28T00:06:32.914Z,1014.96
2022-07-28T00:07:32.891Z,1014.97
2022-07-28T00:08:32.870Z,1014.97
2022-07-28T00:09:32.850Z,1014.98
2022-07-28T00:10:32.835Z,1014.96
2022-07-28T00:11:32.812Z,1014.93
2022-07-28T00:12:32.787Z,1014.97
2022-07-28T00:13:32.770Z,1014.94
2022-07-28T00:14:32.748Z,1014.94
2022-07-28T00:15:32.724Z,1014.95
2022-07-28T00:16:32.812Z,1014.94
2022-07-28T00:17:32.687Z,1014.92
2022-07-28T00:18:32.665Z,1014.94
2022-07-28T00:19:32.647Z,1014.91
2022-07-28T00:20:32.623Z,1014.89
2022-07-28T00:21:32.604Z,1014.88
2022-07-28T00:22:32.583Z,1014.91
2022-07-28T00:23:39.580Z,1014.86
2022-07-28T00:24:32.540Z,1014.90
2022-07-28T00:25:32.522Z,1014.89
2022-07-28T00:26:32.499Z,1014.88
2022-07-28T00:27:32.479Z,1014.89
2022-07-28T00:28:32.458Z,1014.87
2022-07-28T00:29:49.197Z,1014.88
2022-07-28T00:30:32.418Z,1014.89
2022-07-28T00:31:32.461Z,1014.87
2022-07-28T00:32:32.377Z,1014.88
2022-07-28T00:33:32.355Z,1014.90
2022-07-28T00:34:32.336Z,1014.89
2022-07-28T00:35:32.315Z,1014.88
2022-07-28T00:36:32.292Z,1014.87
2022-07-28T00:37:32.272Z,1014.88
2022-07-28T00:38:32.251Z,1014.87
2022-07-28T00:39:32.230Z,1014.84
2022-07-28T00:40:32.218Z,1014.81
2022-07-28T00:41:32.191Z,1014.84
2022-07-28T00:42:32.167Z,1014.83
2022-07-28T00:43:32.147Z,1014.82
2022-07-28T00:44:32.126Z,1014.78
2022-07-28T00:45:32.107Z,1014.81
2022-07-28T00:46:32.104Z,1014.80
2022-07-28T00:47:34.014Z,1014.85
2022-07-28T00:48:32.099Z,1014.83
2022-07-28T00:49:32.023Z,1014.87
2022-07-28T00:50:32.001Z,1014.86
2022-07-28T00:51:31.986Z,1014.84
2022-07-28T00:52:31.968Z,1014.86
2022-07-28T00:53:31.944Z,1014.82
2022-07-28T00:54:31.922Z,1014.82
2022-07-28T00:55:31.900Z,1014.80
2022-07-28T00:56:31.879Z,1014.77
2022-07-28T00:57:31.860Z,1014.75
2022-07-28T00:58:31.837Z,1014.80
2022-07-28T00:59:33.835Z,1014.74
2022-07-28T01:00:31.821Z,1014.74
2022-07-28T01:01:31.868Z,1014.71
2022-07-28T01:02:31.934Z,1014.72
2022-07-28T01:03:31.735Z,1014.70
2022-07-28T01:04:31.716Z,1014.66
2022-07-28T01:05:43.370Z,1014.70
2022-07-28T01:06:31.680Z,1014.71
2022-07-28T01:07:31.650Z,1014.68
2022-07-28T01:08:31.631Z,1014.68
2022-07-28T01:09:31.609Z,1014.66
2022-07-28T01:10:31.588Z,1014.68
2022-07-28T01:11:31.571Z,1014.67
2022-07-28T01:12:31.555Z,1014.65
2022-07-28T01:13:33.149Z,1014.63
2022-07-28T01:14:31.508Z,1014.63
2022-07-28T01:15:31.488Z,1014.64
2022-07-28T01:16:31.511Z,1014.62
2022-07-28T01:17:31.449Z,1014.64
2022-07-28T01:18:31.431Z,1014.64
2022-07-28T01:19:31.406Z,1014.61
2022-07-28T01:20:31.388Z,1014.67
2022-07-28T01:21:31.365Z,1014.65
2022-07-28T01:22:31.340Z,1014.63
2022-07-28T01:23:31.328Z,1014.62
2022-07-28T01:24:31.303Z,1014.62
2022-07-28T01:25:31.279Z,1014.63
2022-07-28T01:26:31.256Z,1014.60
2022-07-28T01:27:31.236Z,1014.65
2022-07-28T01:28:31.215Z,1014.66
2022-07-28T01:29:31.195Z,1014.65
2022-07-28T01:30:31.173Z,1014.62
2022-07-28T01:31:31.258Z,1014.66
2022-07-28T01:32:31.131Z,1014.61
2022-07-28T01:33:31.111Z,1014.63
2022-07-28T01:34:31.089Z,1014.59
2022-07-28T01:35:31.075Z,1014.59
2022-07-28T01:36:31.053Z,1014.63
2022-07-28T01:37:31.034Z,1014.61
2022-07-28T01:38:31.008Z,1014.60
2022-07-28T01:39:31.006Z,1014.61
2022-07-28T01:40:30.965Z,1014.61
2022-07-28T01:41:30.946Z,1014.61
2022-07-28T01:42:30.926Z,1014.61
2022-07-28T01:43:30.904Z,1014.61
2022-07-28T01:44:30.882Z,1014.61
2022-07-28T01:45:30.872Z,1014.60
2022-07-28T01:46:30.932Z,1014.61
2022-07-28T01:47:30.832Z,1014.63
2022-07-28T01:48:30.800Z,1014.62
2022-07-28T01:49:30.780Z,1014.60
2022-07-28T01:50:30.758Z,1014.59
2022-07-28T01:51:30.736Z,1014.59
2022-07-28T01:52:30.718Z,1014.61
2022-07-28T01:53:30.703Z,1014.63
2022-07-28T01:54:30.679Z,1014.60
2022-07-28T01:55:30.654Z,1014.59
2022-07-28T01:56:30.638Z,1014.63
2022-07-28T01:57:30.612Z,1014.63
2022-07-28T01:58:30.595Z,1014.59
2022-07-28T01:59:31.973Z,1014.62
2022-07-28T02:00:30.548Z,1014.58
2022-07-28T02:01:30.580Z,1014.59
2022-07-28T02:02:30.510Z,1014.62
2022-07-28T02:03:30.487Z,1014.60
2022-07-28T02:04:30.567Z,1014.61
2022-07-28T02:05:30.549Z,1014.64
2022-07-28T02:06:30.427Z,1014.64
2022-07-28T02:07:30.414Z,1014.64
2022-07-28T02:08:30.382Z,1014.63
2022-07-28T02:09:30.363Z,1014.63
2022-07-28T02:10:30.341Z,1014.59
2022-07-28T02:11:30.323Z,1014.59
2022-07-28T02:12:30.300Z,1014.57
2022-07-28T02:13:30.282Z,1014.58
2022-07-28T02:14:30.261Z,1014.59
2022-07-28T02:15:30.272Z,1014.58
2022-07-28T02:16:30.219Z,1014.61
2022-07-28T02:17:30.197Z,1014.57
2022-07-28T02:18:30.176Z,1014.53
2022-07-28T02:19:30.156Z,1014.57
2022-07-28T02:20:30.134Z,1014.54
2022-07-28T02:21:30.115Z,1014.52
2022-07-28T02:22:30.094Z,1014.52
2022-07-28T02:23:30.071Z,1014.54
2022-07-28T02:24:30.048Z,1014.55
2022-07-28T02:25:30.029Z,1014.51
2022-07-28T02:26:30.008Z,1014.50
2022-07-28T02:27:29.997Z,1014.51
2022-07-28T02:28:29.964Z,1014.49
2022-07-28T02:29:49.734Z,1014.49
2022-07-28T02:30:29.924Z,1014.45
2022-07-28T02:31:30.024Z,1014.43
2022-07-28T02:32:29.882Z,1014.42
2022-07-28T02:33:57.974Z,1014.46
2022-07-28T02:34:29.839Z,1014.46
2022-07-28T02:35:32.034Z,1014.41
2022-07-28T02:36:29.801Z,1014.47
2022-07-28T02:37:29.778Z,1014.47
2022-07-28T02:38:29.761Z,1014.49
2022-07-28T02:39:29.734Z,1014.48
2022-07-28T02:40:29.715Z,1014.46
2022-07-28T02:41:29.693Z,1014.43
2022-07-28T02:42:29.673Z,1014.39
2022-07-28T02:43:49.357Z,1014.40
2022-07-28T02:44:29.630Z,1014.41
2022-07-28T02:45:29.610Z,1014.39
2022-07-28T02:46:29.691Z,1014.40
2022-07-28T02:47:29.569Z,1014.41
2022-07-28T02:48:29.550Z,1014.43
2022-07-28T02:49:29.528Z,1014.41
2022-07-28T02:50:29.506Z,1014.46
2022-07-28T02:51:29.497Z,1014.48
2022-07-28T02:52:29.469Z,1014.47
2022-07-28T02:53:29.443Z,1014.52
2022-07-28T02:54:29.423Z,1014.54
2022-07-28T02:55:29.401Z,1014.52
2022-07-28T02:56:29.387Z,1014.55
2022-07-28T02:57:29.360Z,1014.55
2022-07-28T02:58:29.340Z,1014.52
2022-07-28T02:59:29.317Z,1014.51
2022-07-28T03:00:29.298Z,1014.47
2022-07-28T03:01:29.363Z,1014.47
2022-07-28T03:02:29.255Z,1014.46
2022-07-28T03:03:29.235Z,1014.44
2022-07-28T03:04:29.209Z,1014.45
2022-07-28T03:05:29.228Z,1014.45
2022-07-28T03:06:29.214Z,1014.41
2022-07-28T03:07:29.152Z,1014.42
2022-07-28T03:08:29.131Z,1014.44
2022-07-28T03:09:29.109Z,1014.42
2022-07-28T03:10:34.070Z,1014.42
2022-07-28T03:11:29.073Z,1014.48
2022-07-28T03:12:29.047Z,1014.50
2022-07-28T03:13:29.022Z,1014.47
2022-07-28T03:14:29.004Z,1014.45
2022-07-28T03:15:28.981Z,1014.46
2022-07-28T03:16:29.033Z,1014.44
2022-07-28T03:17:28.939Z,1014.46
2022-07-28T03:18:28.921Z,1014.43
2022-07-28T03:19:28.898Z,1014.46
2022-07-28T03:20:28.877Z,1014.48
2022-07-28T03:21:28.856Z,1014.52
2022-07-28T03:22:28.836Z,1014.50
2022-07-28T03:23:28.813Z,1014.53
2022-07-28T03:24:28.794Z,1014.57
2022-07-28T03:25:28.793Z,1014.54
2022-07-28T03:26:28.752Z,1014.57
2022-07-28T03:27:28.727Z,1014.52
2022-07-28T03:28:28.708Z,1014.55
2022-07-28T03:29:28.685Z,1014.55
2022-07-28T03:30:28.733Z,1014.51
2022-07-28T03:31:28.643Z,1014.52
2022-07-28T03:32:28.623Z,1014.52
2022-07-28T03:33:28.601Z,1014.45
2022-07-28T03:34:28.586Z,1014.47
2022-07-28T03:35:28.558Z,1014.45
2022-07-28T03:36:28.541Z,1014.47
2022-07-28T03:37:28.520Z,1014.47
2022-07-28T03:38:28.499Z,1014.49
2022-07-28T03:39:28.474Z,1014.51
2022-07-28T03:40:28.455Z,1014.53
2022-07-28T03:41:28.433Z,1014.50
2022-07-28T03:42:28.414Z,1014.47
2022-07-28T03:43:28.390Z,1014.47
2022-07-28T03:44:29.147Z,1014.48
2022-07-28T03:45:28.350Z,1014.48
2022-07-28T03:46:28.417Z,1014.50
2022-07-28T03:47:28.306Z,1014.50
2022-07-28T03:48:28.285Z,1014.49
2022-07-28T03:49:28.265Z,1014.47
2022-07-28T03:50:28.249Z,1014.46
2022-07-28T03:51:28.225Z,1014.49
2022-07-28T03:52:28.202Z,1014.48
2022-07-28T03:53:28.181Z,1014.47
2022-07-28T03:54:28.160Z,1014.49
2022-07-28T03:55:28.148Z,1014.51
2022-07-28T03:56:28.123Z,1014.49
2022-07-28T03:57:28.099Z,1014.44
2022-07-28T03:58:28.674Z,1014.47
2022-07-28T03:59:28.054Z,1014.46
2022-07-28T04:00:28.038Z,1014.45
2022-07-28T04:01:28.108Z,1014.47
2022-07-28T04:02:28.056Z,1014.50
2022-07-28T04:03:42.597Z,1014.47
2022-07-28T04:04:27.951Z,1014.52
2022-07-28T04:05:27.930Z,1014.49
2022-07-28T04:06:27.908Z,1014.49
2022-07-28T04:07:27.884Z,1014.45
2022-07-28T04:08:27.867Z,1014.48
2022-07-28T04:09:27.843Z,1014.50
2022-07-28T04:10:27.823Z,1014.51
2022-07-28T04:11:27.801Z,1014.49
2022-07-28T04:12:27.779Z,1014.50
2022-07-28T04:13:27.759Z,1014.50
2022-07-28T04:14:27.738Z,1014.51
2022-07-28T04:15:27.715Z,1014.52
2022-07-28T04:16:27.780Z,1014.52
2022-07-28T04:17:27.673Z,1014.50
2022-07-28T04:18:27.656Z,1014.52
2022-07-28T04:19:27.635Z,1014.48
2022-07-28T04:20:27.611Z,1014.49
2022-07-28T04:21:27.592Z,1014.53
2022-07-28T04:22:27.572Z,1014.50
2022-07-28T04:23:27.547Z,1014.48
2022-07-28T04:24:27.525Z,1014.49
2022-07-28T04:25:27.508Z,1014.47
2022-07-28T04:26:27.484Z,1014.46
2022-07-28T04:27:27.460Z,1014.49
2022-07-28T04:28:27.439Z,1014.48
2022-07-28T04:29:27.751Z,1014.46
2022-07-28T04:30:27.452Z,1014.51
2022-07-28T04:31:27.452Z,1014.43
2022-07-28T04:32:27.356Z,1014.49
2022-07-28T04:33:27.339Z,1014.47
2022-07-28T04:34:27.321Z,1014.47
2022-07-28T04:35:27.292Z,1014.49
2022-07-28T04:36:27.275Z,1014.47
2022-07-28T04:37:27.250Z,1014.46
2022-07-28T04:38:27.231Z,1014.45
2022-07-28T04:39:27.207Z,1014.47
2022-07-28T04:40:27.196Z,1014.43
2022-07-28T04:41:27.170Z,1014.42
2022-07-28T04:42:27.147Z,1014.43
2022-07-28T04:43:27.127Z,1014.42
2022-07-28T04:44:27.103Z,1014.49
2022-07-28T04:45:27.081Z,1014.51
2022-07-28T04:46:27.139Z,1014.53
2022-07-28T04:47:27.042Z,1014.56
2022-07-28T04:48:27.018Z,1014.56
2022-07-28T04:49:26.996Z,1014.57
2022-07-28T04:50:26.981Z,1014.56
2022-07-28T04:51:26.959Z,1014.57
2022-07-28T04:52:26.936Z,1014.56
2022-07-28T04:53:26.911Z,1014.59
2022-07-28T04:54:27.004Z,1014.56
2022-07-28T04:55:26.873Z,1014.52
2022-07-28T04:56:26.851Z,1014.52
2022-07-28T04:57:26.829Z,1014.51
2022-07-28T04:58:26.807Z,1014.50
2022-07-28T04:59:26.784Z,1014.52
2022-07-28T05:00:26.768Z,1014.50
2022-07-28T05:01:26.805Z,1014.52
2022-07-28T05:02:26.723Z,1014.51
2022-07-28T05:03:26.699Z,1014.48
2022-07-28T05:04:26.779Z,1014.52
2022-07-28T05:05:26.659Z,1014.48
2022-07-28T05:06:26.639Z,1014.50
2022-07-28T05:07:26.616Z,1014.50
2022-07-28T05:08:26.822Z,1014.50
2022-07-28T05:09:26.574Z,1014.54
2022-07-28T05:10:26.554Z,1014.53
2022-07-28T05:11:26.529Z,1014.52
2022-07-28T05:12:26.510Z,1014.50
2022-07-28T05:13:31.911Z,1014.50
2022-07-28T05:14:26.549Z,1014.49
2022-07-28T05:15:26.452Z,1014.53
2022-07-28T05:16:26.495Z,1014.49
2022-07-28T05:17:26.410Z,1014.50
2022-07-28T05:18:26.385Z,1014.53
2022-07-28T05:19:26.362Z,1014.56
2022-07-28T05:20:26.341Z,1014.53
2022-07-28T05:21:26.319Z,1014.54
2022-07-28T05:22:26.304Z,1014.56
2022-07-28T05:23:26.275Z,1014.58
2022-07-28T05:24:26.261Z,1014.58
2022-07-28T05:25:26.237Z,1014.56
2022-07-28T05:26:26.219Z,1014.55
2022-07-28T05:27:26.191Z,1014.53
2022-07-28T05:28:26.173Z,1014.51
2022-07-28T05:29:26.151Z,1014.53
2022-07-28T05:30:26.131Z,1014.53
2022-07-28T05:31:26.159Z,1014.56
2022-07-28T05:32:26.129Z,1014.57
2022-07-28T05:33:30.187Z,1014.57
2022-07-28T05:34:26.050Z,1014.59
2022-07-28T05:35:26.022Z,1014.60
2022-07-28T05:36:26.003Z,1014.61
2022-07-28T05:37:25.981Z,1014.65
2022-07-28T05:38:25.962Z,1014.64
2022-07-28T05:39:25.939Z,1014.64
2022-07-28T05:40:25.918Z,1014.66
2022-07-28T05:41:25.897Z,1014.66
2022-07-28T05:42:25.877Z,1014.67
2022-07-28T05:43:25.856Z,1014.67
2022-07-28T05:44:25.832Z,1014.65
2022-07-28T05:45:25.871Z,1014.66
2022-07-28T05:46:25.791Z,1014.65
2022-07-28T05:47:25.771Z,1014.65
2022-07-28T05:48:25.754Z,1014.66
2022-07-28T05:49:25.790Z,1014.65
2022-07-28T05:50:25.707Z,1014.61
2022-07-28T05:51:25.686Z,1014.63
2022-07-28T05:52:25.666Z,1014.58
2022-07-28T05:53:25.644Z,1014.62
2022-07-28T05:54:25.890Z,1014.60
2022-07-28T05:55:25.602Z,1014.57
2022-07-28T05:56:25.589Z,1014.56
2022-07-28T05:57:25.565Z,1014.60
2022-07-28T05:58:25.541Z,1014.60
2022-07-28T05:59:25.516Z,1014.59
2022-07-28T06:00:25.497Z,1014.60
2022-07-28T06:01:25.588Z,1014.54
2022-07-28T06:02:25.539Z,1014.54
2022-07-28T06:03:25.435Z,1014.56
2022-07-28T06:04:25.538Z,1014.55
2022-07-28T06:05:25.391Z,1014.53
2022-07-28T06:06:25.378Z,1014.53
2022-07-28T06:07:42.891Z,1014.53
2022-07-28T06:08:25.333Z,1014.52
2022-07-28T06:09:25.308Z,1014.58
2022-07-28T06:10:25.289Z,1014.57
2022-07-28T06:11:25.267Z,1014.60
2022-07-28T06:12:25.244Z,1014.58
2022-07-28T06:13:25.225Z,1014.61
2022-07-28T06:14:25.202Z,1014.63
2022-07-28T06:15:25.184Z,1014.58
2022-07-28T06:16:25.186Z,1014.56
2022-07-28T06:17:25.145Z,1014.58
2022-07-28T06:18:25.122Z,1014.61
2022-07-28T06:19:25.097Z,1014.58
2022-07-28T06:20:25.094Z,1014.57
2022-07-28T06:21:25.056Z,1014.63
2022-07-28T06:22:25.038Z,1014.61
2022-07-28T06:23:25.013Z,1014.62
2022-07-28T06:24:24.994Z,1014.64
2022-07-28T06:25:24.971Z,1014.59
2022-07-28T06:26:24.951Z,1014.61
2022-07-28T06:27:24.928Z,1014.59
2022-07-28T06:28:24.909Z,1014.60
2022-07-28T06:29:24.889Z,1014.61
2022-07-28T06:30:24.871Z,1014.63
2022-07-28T06:31:24.935Z,1014.64
2022-07-28T06:32:24.850Z,1014.67
2022-07-28T06:33:24.817Z,1014.63
2022-07-28T06:34:24.787Z,1014.67
2022-07-28T06:35:24.769Z,1014.68
2022-07-28T06:36:24.745Z,1014.66
2022-07-28T06:37:24.720Z,1014.67
2022-07-28T06:38:24.706Z,1014.66
2022-07-28T06:39:24.687Z,1014.65
2022-07-28T06:40:24.660Z,1014.64
2022-07-28T06:41:24.642Z,1014.66
2022-07-28T06:42:24.617Z,1014.65
2022-07-28T06:43:24.594Z,1014.64
2022-07-28T06:44:37.504Z,1014.63
2022-07-28T06:45:24.555Z,1014.63
2022-07-28T06:46:24.589Z,1014.59
2022-07-28T06:47:24.510Z,1014.62
2022-07-28T06:48:28.755Z,1014.63
2022-07-28T06:49:24.539Z,1014.62
2022-07-28T06:50:24.452Z,1014.61
2022-07-28T06:51:24.427Z,1014.62
2022-07-28T06:52:24.412Z,1014.60
2022-07-28T06:53:24.390Z,1014.57
2022-07-28T06:54:24.369Z,1014.58
2022-07-28T06:55:24.346Z,1014.58
2022-07-28T06:56:24.326Z,1014.59
2022-07-28T06:57:24.305Z,1014.56
2022-07-28T06:58:24.286Z,1014.58
2022-07-28T06:59:24.264Z,1014.61
2022-07-28T07:00:24.242Z,1014.61
2022-07-28T07:01:24.306Z,1014.59
2022-07-28T07:02:27.998Z,1014.59
2022-07-28T07:03:24.180Z,1014.63
2022-07-28T07:04:24.216Z,1014.60
2022-07-28T07:05:24.138Z,1014.60
2022-07-28T07:06:24.120Z,1014.59
2022-07-28T07:07:24.097Z,1014.63
2022-07-28T07:08:24.077Z,1014.58
2022-07-28T07:09:24.057Z,1014.62
2022-07-28T07:10:24.039Z,1014.60
2022-07-28T07:11:24.020Z,1014.59
2022-07-28T07:12:23.995Z,1014.56
2022-07-28T07:13:23.972Z,1014.58
2022-07-28T07:14:23.956Z,1014.59
2022-07-28T07:15:23.938Z,1014.61
2022-07-28T07:16:23.964Z,1014.55
2022-07-28T07:17:23.889Z,1014.56
2022-07-28T07:18:23.878Z,1014.58
2022-07-28T07:19:23.847Z,1014.66
2022-07-28T07:20:23.828Z,1014.61
2022-07-28T07:21:23.813Z,1014.60
2022-07-28T07:22:23.793Z,1014.62
2022-07-28T07:23:23.765Z,1014.63
2022-07-28T07:24:23.748Z,1014.61
2022-07-28T07:25:23.725Z,1014.63
2022-07-28T07:26:23.723Z,1014.63
2022-07-28T07:27:23.684Z,1014.64
2022-07-28T07:28:23.665Z,1014.63
2022-07-28T07:29:23.658Z,1014.61
2022-07-28T07:30:23.624Z,1014.61
2022-07-28T07:31:23.656Z,1014.61
2022-07-28T07:32:23.586Z,1014.62
2022-07-28T07:33:23.562Z,1014.62
2022-07-28T07:34:23.539Z,1014.62
2022-07-28T07:35:23.518Z,1014.59
2022-07-28T07:36:23.497Z,1014.58
2022-07-28T07:37:23.478Z,1014.62
2022-07-28T07:38:28.820Z,1014.58
2022-07-28T07:39:23.437Z,1014.64
2022-07-28T07:40:23.421Z,1014.66
2022-07-28T07:41:23.399Z,1014.66
2022-07-28T07:42:24.631Z,1014.68
2022-07-28T07:43:23.360Z,1014.67
2022-07-28T07:44:23.334Z,1014.68
2022-07-28T07:45:23.316Z,1014.65
2022-07-28T07:46:23.378Z,1014.68
2022-07-28T07:47:23.273Z,1014.67
2022-07-28T07:48:23.253Z,1014.67
2022-07-28T07:49:23.311Z,1014.64
2022-07-28T07:50:23.268Z,1014.63
2022-07-28T07:51:23.192Z,1014.68
2022-07-28T07:52:23.177Z,1014.66
2022-07-28T07:53:23.152Z,1014.69
2022-07-28T07:54:23.132Z,1014.68
2022-07-28T07:55:23.114Z,1014.68
2022-07-28T07:56:23.093Z,1014.66
2022-07-28T07:57:23.074Z,1014.68
2022-07-28T07:58:23.051Z,1014.70
2022-07-28T07:59:23.033Z,1014.68
2022-07-28T08:00:28.819Z,1014.72
2022-07-28T08:01:23.053Z,1014.65
2022-07-28T08:02:22.969Z,1014.62
2022-07-28T08:03:22.958Z,1014.66
2022-07-28T08:04:25.459Z,1014.62
2022-07-28T08:05:34.917Z,1014.58
2022-07-28T08:06:26.553Z,1014.62
2022-07-28T08:07:22.870Z,1014.56
2022-07-28T08:08:22.848Z,1014.58
2022-07-28T08:09:22.830Z,1014.56
2022-07-28T08:10:22.834Z,1014.58
2022-07-28T08:11:22.786Z,1014.55
2022-07-28T08:12:25.206Z,1014.55
2022-07-28T08:13:22.757Z,1014.58
2022-07-28T08:14:22.728Z,1014.55
2022-07-28T08:15:22.708Z,1014.57
2022-07-28T08:16:22.904Z,1014.51
2022-07-28T08:17:25.816Z,1014.51
2022-07-28T08:18:22.649Z,1014.50
2022-07-28T08:19:22.632Z,1014.53
2022-07-28T08:20:22.687Z,1014.50
2022-07-28T08:21:22.588Z,1014.50
2022-07-28T08:22:22.574Z,1014.51
2022-07-28T08:23:26.166Z,1014.51
2022-07-28T08:24:32.331Z,1014.51
2022-07-28T08:25:22.517Z,1014.50
2022-07-28T08:26:22.491Z,1014.49
2022-07-28T08:27:22.478Z,1014.42
2022-07-28T08:28:22.451Z,1014.38
2022-07-28T08:29:22.441Z,1014.46
2022-07-28T08:30:25.243Z,1014.46
2022-07-28T08:31:22.443Z,1014.42
2022-07-28T08:32:22.381Z,1014.38
2022-07-28T08:33:22.357Z,1014.46
2022-07-28T08:34:31.848Z,1014.41
2022-07-28T08:35:32.826Z,1014.37
2022-07-28T08:36:22.299Z,1014.36
2022-07-28T08:37:22.284Z,1014.39
2022-07-28T08:38:22.260Z,1014.42
2022-07-28T08:39:22.239Z,1014.43
2022-07-28T08:40:27.173Z,1014.45
2022-07-28T08:41:22.199Z,1014.36
2022-07-28T08:42:22.179Z,1014.34
2022-07-28T08:43:22.159Z,1014.33
2022-07-28T08:44:22.138Z,1014.30
2022-07-28T08:45:22.118Z,1014.34
2022-07-28T08:46:22.165Z,1014.37
2022-07-28T08:47:22.081Z,1014.38
2022-07-28T08:48:22.060Z,1014.36
2022-07-28T08:49:22.110Z,1014.26
2022-07-28T08:50:22.020Z,1014.29
2022-07-28T08:51:22.002Z,1014.30
2022-07-28T08:52:21.982Z,1014.27
2022-07-28T08:53:21.967Z,1014.28
2022-07-28T08:54:21.944Z,1014.28
2022-07-28T08:55:21.926Z,1014.32
2022-07-28T08:56:21.907Z,1014.35
2022-07-28T08:57:21.889Z,1014.32
2022-07-28T08:58:21.870Z,1014.31
2022-07-28T08:59:21.851Z,1014.35
2022-07-28T09:00:21.830Z,1014.31
2022-07-28T09:01:21.902Z,1014.28
2022-07-28T09:02:21.996Z,1014.32
2022-07-28T09:03:21.909Z,1014.29
2022-07-28T09:04:21.754Z,1014.31
2022-07-28T09:05:21.739Z,1014.31
2022-07-28T09:06:21.715Z,1014.31
2022-07-28T09:07:21.697Z,1014.33
2022-07-28T09:08:21.686Z,1014.34
2022-07-28T09:09:21.678Z,1014.30
2022-07-28T09:10:21.647Z,1014.30
2022-07-28T09:11:21.621Z,1014.26
2022-07-28T09:12:21.602Z,1014.31
2022-07-28T09:13:21.583Z,1014.29
2022-07-28T09:14:21.563Z,1014.27
2022-07-28T09:15:21.547Z,1014.26
2022-07-28T09:16:21.637Z,1014.23
2022-07-28T09:17:21.506Z,1014.22
2022-07-28T09:18:21.488Z,1014.20
2022-07-28T09:19:21.468Z,1014.19
2022-07-28T09:20:21.490Z,1014.24
2022-07-28T09:21:21.433Z,1014.21
2022-07-28T09:22:21.413Z,1014.20
2022-07-28T09:23:42.353Z,1014.22
2022-07-28T09:24:21.374Z,1014.20
2022-07-28T09:25:21.358Z,1014.16
2022-07-28T09:26:21.345Z,1014.20
2022-07-28T09:27:21.318Z,1014.18
2022-07-28T09:28:21.300Z,1014.15
2022-07-28T09:29:21.282Z,1014.17
2022-07-28T09:30:21.263Z,1014.12
2022-07-28T09:31:21.350Z,1014.14
2022-07-28T09:32:21.232Z,1014.12
2022-07-28T09:33:42.088Z,1014.08
2022-07-28T09:34:21.188Z,1014.17
2022-07-28T09:35:21.169Z,1014.12
2022-07-28T09:36:21.151Z,1014.17
2022-07-28T09:37:26.762Z,1014.16
2022-07-28T09:38:21.112Z,1014.15
2022-07-28T09:39:21.093Z,1014.15
2022-07-28T09:40:22.477Z,1014.13
2022-07-28T09:41:21.058Z,1014.19
2022-07-28T09:42:21.038Z,1014.13
2022-07-28T09:43:21.019Z,1014.15
2022-07-28T09:44:21.005Z,1014.17
2022-07-28T09:45:23.325Z,1014.14
2022-07-28T09:46:21.183Z,1014.12
2022-07-28T09:47:21.239Z,1014.20
2022-07-28T09:48:21.103Z,1014.12
2022-07-28T09:49:24.014Z,1014.18
2022-07-28T09:50:20.892Z,1014.12
2022-07-28T09:51:20.871Z,1014.13
2022-07-28T09:52:20.851Z,1014.18
2022-07-28T09:53:20.838Z,1014.12
2022-07-28T09:54:20.821Z,1014.11
2022-07-28T09:55:20.796Z,1014.05
2022-07-28T09:56:20.780Z,1014.05
2022-07-28T09:57:20.760Z,1014.05
2022-07-28T09:58:20.743Z,1014.03
2022-07-28T09:59:20.749Z,1014.03
2022-07-28T10:00:20.706Z,1014.03
2022-07-28T10:01:20.784Z,1014.02
2022-07-28T10:02:20.776Z,1014.03
2022-07-28T10:03:20.700Z,1014.02
2022-07-28T10:04:20.917Z,1014.08
2022-07-28T10:05:20.614Z,1014.06
2022-07-28T10:06:20.593Z,1014.05
2022-07-28T10:07:20.576Z,1014.05
2022-07-28T10:08:20.557Z,1014.02
2022-07-28T10:09:20.548Z,1014.04
2022-07-28T10:10:20.539Z,1014.02
2022-07-28T10:11:20.502Z,1014.03
2022-07-28T10:12:20.485Z,1014.02
2022-07-28T10:13:20.467Z,1013.97
2022-07-28T10:14:20.453Z,1014.00
2022-07-28T10:15:20.428Z,1013.95
2022-07-28T10:16:20.498Z,1013.94
2022-07-28T10:17:20.392Z,1013.90
2022-07-28T10:18:20.373Z,1013.88
2022-07-28T10:19:20.355Z,1013.81
2022-07-28T10:20:20.336Z,1013.87
2022-07-28T10:21:20.322Z,1013.88
2022-07-28T10:22:20.302Z,1013.91
2022-07-28T10:23:20.284Z,1013.90
2022-07-28T10:24:20.268Z,1013.86
2022-07-28T10:25:20.251Z,1013.82
2022-07-28T10:26:20.234Z,1013.86
2022-07-28T10:27:20.211Z,1013.83
2022-07-28T10:28:20.209Z,1013.84
2022-07-28T10:29:20.178Z,1013.82
2022-07-28T10:30:20.157Z,1013.83
2022-07-28T10:31:20.266Z,1013.79
2022-07-28T10:32:20.122Z,1013.79
2022-07-28T10:33:20.104Z,1013.82
2022-07-28T10:34:20.545Z,1013.78
2022-07-28T10:35:20.069Z,1013.76
2022-07-28T10:36:20.057Z,1013.73
2022-07-28T10:37:20.039Z,1013.78
2022-07-28T10:38:20.018Z,1013.79
2022-07-28T10:39:19.999Z,1013.74
2022-07-28T10:40:19.978Z,1013.81
2022-07-28T10:41:19.962Z,1013.75
2022-07-28T10:42:19.944Z,1013.81
2022-07-28T10:43:19.930Z,1013.78
2022-07-28T10:44:20.086Z,1013.75
2022-07-28T10:45:19.891Z,1013.72
2022-07-28T10:46:19.924Z,1013.73
2022-07-28T10:47:19.893Z,1013.72
2022-07-28T10:48:19.836Z,1013.68
2022-07-28T10:49:20.109Z,1013.69
2022-07-28T10:50:19.813Z,1013.62
2022-07-28T10:51:19.798Z,1013.63
2022-07-28T10:52:45.726Z,1013.62
2022-07-28T10:53:19.750Z,1013.68
2022-07-28T10:54:25.144Z,1013.64
2022-07-28T10:55:20.459Z,1013.62
2022-07-28T10:56:19.698Z,1013.60
2022-07-28T10:57:19.680Z,1013.55
2022-07-28T10:58:25.022Z,1013.60
2022-07-28T10:59:19.646Z,1013.56
2022-07-28T11:00:25.719Z,1013.60
2022-07-28T11:01:46.305Z,1013.57
2022-07-28T11:02:19.696Z,1013.52
2022-07-28T11:03:19.704Z,1013.50
2022-07-28T11:04:19.559Z,1013.52
2022-07-28T11:05:19.538Z,1013.46
2022-07-28T11:06:19.519Z,1013.51
2022-07-28T11:07:19.503Z,1013.53
2022-07-28T11:08:19.490Z,1013.56
2022-07-28T11:09:19.469Z,1013.52
2022-07-28T11:10:19.454Z,1013.51
2022-07-28T11:11:19.432Z,1013.52
2022-07-28T11:12:19.415Z,1013.54
2022-07-28T11:13:19.397Z,1013.52
2022-07-28T11:14:19.383Z,1013.53
2022-07-28T11:15:19.361Z,1013.49
2022-07-28T11:16:19.393Z,1013.48
2022-07-28T11:17:23.980Z,1013.41
2022-07-28T11:18:19.309Z,1013.48
2022-07-28T11:19:36.420Z,1013.52
2022-07-28T11:20:29.700Z,1013.53
2022-07-28T11:21:19.256Z,1013.49
2022-07-28T11:22:19.241Z,1013.49
2022-07-28T11:23:19.221Z,1013.52
2022-07-28T11:24:19.204Z,1013.47
2022-07-28T11:25:22.371Z,1013.56
2022-07-28T11:26:19.166Z,1013.55
2022-07-28T11:27:19.149Z,1013.52
2022-07-28T11:28:19.129Z,1013.52
2022-07-28T11:29:19.118Z,1013.47
2022-07-28T11:30:19.318Z,1013.42
2022-07-28T11:31:19.215Z,1013.45
2022-07-28T11:32:19.066Z,1013.41
2022-07-28T11:33:19.048Z,1013.38
2022-07-28T11:34:19.025Z,1013.42
2022-07-28T11:35:19.011Z,1013.44
2022-07-28T11:36:18.989Z,1013.42
2022-07-28T11:37:18.973Z,1013.36
2022-07-28T11:38:18.959Z,1013.38
2022-07-28T11:39:18.940Z,1013.37
2022-07-28T11:40:18.930Z,1013.42
2022-07-28T11:41:18.905Z,1013.40
2022-07-28T11:42:18.887Z,1013.38
2022-07-28T11:43:19.534Z,1013.35
2022-07-28T11:44:18.852Z,1013.31
2022-07-28T11:45:18.833Z,1013.31
2022-07-28T11:46:18.871Z,1013.34
2022-07-28T11:47:18.798Z,1013.31
2022-07-28T11:48:18.781Z,1013.32
2022-07-28T11:49:18.855Z,1013.34
2022-07-28T11:50:18.749Z,1013.28
2022-07-28T11:51:18.725Z,1013.30
2022-07-28T11:52:20.154Z,1013.23
2022-07-28T11:53:18.702Z,1013.22
2022-07-28T11:54:18.683Z,1013.18
2022-07-28T11:55:18.665Z,1013.17
2022-07-28T11:56:18.641Z,1013.18
2022-07-28T11:57:18.624Z,1013.15
2022-07-28T11:58:18.608Z,1013.17
2022-07-28T11:59:18.589Z,1013.15
2022-07-28T12:00:18.573Z,1013.14
2022-07-28T12:01:19.115Z,1013.11
2022-07-28T12:02:18.660Z,1013.13
2022-07-28T12:03:18.530Z,1013.08
2022-07-28T12:04:18.708Z,1013.07
2022-07-28T12:05:18.487Z,1013.07